createdAt,value
2023-05-14T00:02:08.819Z,1.50
2023-05-14T00:04:35.684Z,1.83
2023-05-14T00:07:02.594Z,1.40
2023-05-14T00:09:30.373Z,1.70
2023-05-14T00:11:57.220Z,1.70
2023-05-14T00:14:24.137Z,1.58
2023-05-14T00:16:54.489Z,1.30
2023-05-14T00:19:21.753Z,1.00
2023-05-14T00:21:48.592Z,0.90
2023-05-14T00:24:15.464Z,1.00
2023-05-14T00:26:42.215Z,1.00
2023-05-14T00:29:09.005Z,1.10
2023-05-14T00:31:35.868Z,1.02
2023-05-14T00:34:03.360Z,0.90
2023-05-14T00:36:30.040Z,0.90
2023-05-14T00:38:56.832Z,1.77
2023-05-14T00:41:23.640Z,0.90
2023-05-14T00:43:51.440Z,1.02
2023-05-14T00:46:18.252Z,0.85
2023-05-14T00:48:45.276Z,1.30
2023-05-14T00:51:12.085Z,1.30
2023-05-14T00:53:39.659Z,1.20
2023-05-14T00:56:08.320Z,1.13
2023-05-14T00:58:35.225Z,1.60
2023-05-14T01:01:02.154Z,1.02
2023-05-14T01:03:31.250Z,1.00
2023-05-14T01:06:13.561Z,1.17
2023-05-14T01:09:05.391Z,1.15
2023-05-14T01:11:44.318Z,1.17
2023-05-14T01:14:43.965Z,1.13
2023-05-14T01:17:15.277Z,1.00
2023-05-14T01:19:44.838Z,1.25
2023-05-14T01:22:12.315Z,1.40
2023-05-14T01:24:39.643Z,1.20
2023-05-14T01:27:48.963Z,1.30
2023-05-14T01:30:28.401Z,1.17
2023-05-14T01:33:00.166Z,0.90
2023-05-14T01:35:29.993Z,1.30
2023-05-14T01:38:06.711Z,1.00
2023-05-14T01:40:34.755Z,1.00
2023-05-14T01:43:02.449Z,0.80
2023-05-14T01:45:30.972Z,1.15
2023-05-14T01:47:58.302Z,1.00
2023-05-14T01:50:25.234Z,1.20
2023-05-14T01:52:56.515Z,0.98
2023-05-14T01:55:27.239Z,1.00
2023-05-14T01:57:54.865Z,1.23
2023-05-14T02:00:26.207Z,0.93
2023-05-14T02:02:53.165Z,1.58
2023-05-14T02:05:20.091Z,1.05
2023-05-14T02:07:46.961Z,1.10
2023-05-14T02:10:13.930Z,1.20
2023-05-14T02:12:40.754Z,1.00
2023-05-14T02:15:09.114Z,1.27
2023-05-14T02:17:36.459Z,1.15
2023-05-14T02:20:03.843Z,1.00
2023-05-14T02:22:30.628Z,1.30
2023-05-14T02:24:57.496Z,1.10
2023-05-14T02:27:24.369Z,1.23
2023-05-14T02:29:51.119Z,1.20
2023-05-14T02:32:17.956Z,1.20
2023-05-14T02:34:45.096Z,1.00
2023-05-14T02:37:11.892Z,1.13
2023-05-14T02:39:38.601Z,1.15
2023-05-14T02:42:07.105Z,2.10
2023-05-14T02:44:33.840Z,1.10
2023-05-14T02:47:00.676Z,1.25
2023-05-14T02:49:27.472Z,1.10
2023-05-14T02:51:57.598Z,1.20
2023-05-14T02:54:24.373Z,1.25
2023-05-14T02:56:51.059Z,1.23
2023-05-14T02:59:17.893Z,1.13
2023-05-14T03:01:45.383Z,1.70
2023-05-14T03:04:12.562Z,1.27
2023-05-14T03:06:39.278Z,1.10
2023-05-14T03:09:06.053Z,1.40
2023-05-14T03:11:32.962Z,0.98
2023-05-14T03:13:59.716Z,1.10
2023-05-14T03:16:26.745Z,1.10
2023-05-14T03:18:53.654Z,1.00
2023-05-14T03:21:20.420Z,1.02
2023-05-14T03:23:48.790Z,0.85
2023-05-14T03:26:18.519Z,0.88
2023-05-14T03:28:48.754Z,0.68
2023-05-14T03:31:15.672Z,0.90
2023-05-14T03:33:42.515Z,0.93
2023-05-14T03:36:09.450Z,0.80
2023-05-14T03:38:36.886Z,0.80
2023-05-14T03:41:03.620Z,1.00
2023-05-14T03:43:30.493Z,1.20
2023-05-14T03:45:57.633Z,0.98
2023-05-14T03:48:24.579Z,1.00
2023-05-14T03:50:52.260Z,0.90
2023-05-14T03:53:19.047Z,0.93
2023-05-14T03:55:46.658Z,2.55
2023-05-14T03:58:14.565Z,1.60
2023-05-14T04:00:42.874Z,2.65
2023-05-14T04:03:11.355Z,3.13
2023-05-14T04:05:38.219Z,2.50
2023-05-14T04:08:05.160Z,3.40
2023-05-14T04:10:32.308Z,7.32
2023-05-14T04:13:00.372Z,6.68
2023-05-14T04:15:31.473Z,5.32
2023-05-14T04:17:58.321Z,2.80
2023-05-14T04:20:25.317Z,2.42
2023-05-14T04:22:52.546Z,2.17
2023-05-14T04:25:20.033Z,1.90
2023-05-14T04:27:46.811Z,1.55
2023-05-14T04:30:13.723Z,2.70
2023-05-14T04:32:40.914Z,1.73
2023-05-14T04:35:09.342Z,1.52
2023-05-14T04:37:36.187Z,1.60
2023-05-14T04:40:02.961Z,1.58
2023-05-14T04:42:29.733Z,1.60
2023-05-14T04:44:56.382Z,1.75
2023-05-14T04:47:23.280Z,1.40
2023-05-14T04:49:49.997Z,1.45
2023-05-14T04:52:16.736Z,1.23
2023-05-14T04:54:43.512Z,1.30
2023-05-14T04:57:10.276Z,1.40
2023-05-14T04:59:36.961Z,1.40
2023-05-14T05:02:03.896Z,1.23
2023-05-14T05:04:30.781Z,1.30
2023-05-14T05:06:57.601Z,1.65
2023-05-14T05:09:24.456Z,1.20
2023-05-14T05:11:51.355Z,1.85
2023-05-14T05:14:18.067Z,2.05
2023-05-14T05:16:45.106Z,1.85
2023-05-14T05:19:12.138Z,2.08
2023-05-14T05:21:40.863Z,1.70
2023-05-14T05:24:08.747Z,1.80
2023-05-14T05:26:38.581Z,1.60
2023-05-14T05:29:05.594Z,1.75
2023-05-14T05:31:32.640Z,1.95
2023-05-14T05:34:00.305Z,1.80
2023-05-14T05:36:27.468Z,1.80
2023-05-14T05:38:55.550Z,1.50
2023-05-14T05:41:22.804Z,1.42
2023-05-14T05:43:49.513Z,1.50
2023-05-14T05:46:16.435Z,1.38
2023-05-14T05:48:43.246Z,1.55
2023-05-14T05:51:10.089Z,1.60
2023-05-14T05:53:36.908Z,1.63
2023-05-14T05:56:03.771Z,1.77
2023-05-14T05:58:30.517Z,1.90
2023-05-14T06:00:58.302Z,1.50
2023-05-14T06:03:25.245Z,1.75
2023-05-14T06:05:52.750Z,1.50
2023-05-14T06:08:19.598Z,1.40
2023-05-14T06:10:47.626Z,1.60
2023-05-14T06:13:14.793Z,1.48
2023-05-14T06:15:41.582Z,1.42
2023-05-14T06:18:08.483Z,1.73
2023-05-14T06:20:35.456Z,1.70
2023-05-14T06:23:02.235Z,1.60
2023-05-14T06:25:29.135Z,1.70
2023-05-14T06:27:56.000Z,1.33
2023-05-14T06:30:23.137Z,1.40
2023-05-14T06:32:50.306Z,1.30
2023-05-14T06:35:17.550Z,1.48
2023-05-14T06:37:44.648Z,1.48
2023-05-14T06:40:12.641Z,1.30
2023-05-14T06:42:39.360Z,1.80
2023-05-14T06:45:06.737Z,1.38
2023-05-14T06:47:33.692Z,1.67
2023-05-14T06:50:01.924Z,1.48
2023-05-14T06:52:28.823Z,1.80
2023-05-14T06:54:55.548Z,1.33
2023-05-14T06:57:22.356Z,1.50
2023-05-14T06:59:49.172Z,1.92
2023-05-14T07:02:15.919Z,1.80
2023-05-14T07:04:42.729Z,1.48
2023-05-14T07:07:10.810Z,1.67
2023-05-14T07:09:37.562Z,1.88
2023-05-14T07:12:04.891Z,1.58
2023-05-14T07:14:31.583Z,1.40
2023-05-14T07:16:58.420Z,1.80
2023-05-14T07:19:25.267Z,1.98
2023-05-14T07:21:52.062Z,1.83
2023-05-14T07:24:18.780Z,2.33
2023-05-14T07:26:45.824Z,2.50
2023-05-14T07:29:12.658Z,2.15
2023-05-14T07:31:39.449Z,2.20
2023-05-14T07:34:06.350Z,2.65
2023-05-14T07:36:33.340Z,3.60
2023-05-14T07:39:00.563Z,2.90
2023-05-14T07:41:27.357Z,3.30
2023-05-14T07:43:54.130Z,3.20
2023-05-14T07:46:21.133Z,3.83
2023-05-14T07:48:50.303Z,3.25
2023-05-14T07:51:17.094Z,3.40
2023-05-14T07:53:43.759Z,3.13
2023-05-14T07:56:10.614Z,3.20
2023-05-14T07:58:37.543Z,3.78
2023-05-14T08:01:07.263Z,4.07
2023-05-14T08:03:34.393Z,5.85
2023-05-14T08:06:01.314Z,4.60
2023-05-14T08:08:28.020Z,3.40
2023-05-14T08:10:54.765Z,3.72
2023-05-14T08:13:21.785Z,3.70
2023-05-14T08:15:48.641Z,4.00
2023-05-14T08:18:15.522Z,3.90
2023-05-14T08:20:42.312Z,3.72
2023-05-14T08:23:09.386Z,2.95
2023-05-14T08:25:36.248Z,3.05
2023-05-14T08:28:03.094Z,2.70
2023-05-14T08:30:29.904Z,3.17
2023-05-14T08:32:59.858Z,3.67
2023-05-14T08:35:26.676Z,2.83
2023-05-14T08:37:53.501Z,2.92
2023-05-14T08:40:20.854Z,3.13
2023-05-14T08:42:48.444Z,2.58
2023-05-14T08:45:20.217Z,2.80
2023-05-14T08:47:51.653Z,3.35
2023-05-14T08:50:23.639Z,2.30
2023-05-14T08:52:51.289Z,2.28
2023-05-14T08:55:18.904Z,2.67
2023-05-14T08:57:49.107Z,2.78
2023-05-14T09:00:16.119Z,4.50
2023-05-14T09:02:44.841Z,3.10
2023-05-14T09:05:12.529Z,2.80
2023-05-14T09:07:39.511Z,2.33
2023-05-14T09:10:09.015Z,2.10
2023-05-14T09:12:35.964Z,2.20
2023-05-14T09:15:02.983Z,2.20
2023-05-14T09:17:30.072Z,2.30
2023-05-14T09:19:56.968Z,2.30
2023-05-14T09:22:23.847Z,2.20
2023-05-14T09:25:12.523Z,2.33
2023-05-14T09:27:39.481Z,2.58
2023-05-14T09:30:06.660Z,2.70
2023-05-14T09:32:38.227Z,2.95
2023-05-14T09:35:21.671Z,2.92
2023-05-14T09:37:50.589Z,2.33
2023-05-14T09:40:19.695Z,2.10
2023-05-14T09:42:46.908Z,2.30
2023-05-14T09:45:14.846Z,1.90
2023-05-14T09:47:42.222Z,2.05
2023-05-14T09:50:09.747Z,1.73
2023-05-14T09:52:37.336Z,2.53
2023-05-14T09:55:04.529Z,2.15
2023-05-14T09:57:31.411Z,2.40
2023-05-14T09:59:58.152Z,1.85
2023-05-14T10:02:26.800Z,1.90
2023-05-14T10:04:54.893Z,1.70
2023-05-14T10:07:37.090Z,1.60
2023-05-14T10:10:08.764Z,1.50
2023-05-14T10:12:40.172Z,1.70
2023-05-14T10:15:19.680Z,1.60
2023-05-14T10:17:51.942Z,1.90
2023-05-14T10:20:19.578Z,2.10
2023-05-14T10:22:46.482Z,1.73
2023-05-14T10:25:13.975Z,2.40
2023-05-14T10:27:42.483Z,2.10
2023-05-14T10:30:13.070Z,3.03
2023-05-14T10:32:41.925Z,2.00
2023-05-14T10:35:20.801Z,1.83
2023-05-14T10:37:51.253Z,1.60
2023-05-14T10:40:19.394Z,3.10
2023-05-14T10:42:47.317Z,5.00
2023-05-14T10:45:15.858Z,3.60
2023-05-14T10:47:46.459Z,2.83
2023-05-14T10:52:45.585Z,2.00
2023-05-14T10:55:16.882Z,1.48
2023-05-14T10:57:46.289Z,1.40
2023-05-14T11:00:14.727Z,1.30
2023-05-14T11:02:43.966Z,1.50
2023-05-14T11:05:17.295Z,1.42
2023-05-14T11:07:46.469Z,1.45
2023-05-14T11:10:16.359Z,1.38
2023-05-14T11:12:48.249Z,2.50
2023-05-14T11:15:20.632Z,1.60
2023-05-14T11:17:48.509Z,1.17
2023-05-14T11:20:16.860Z,1.10
2023-05-14T11:22:45.058Z,1.00
2023-05-14T11:25:14.860Z,1.52
2023-05-14T11:27:44.584Z,1.85
2023-05-14T11:30:20.005Z,1.60
2023-05-14T11:32:48.500Z,1.52
2023-05-14T11:35:15.829Z,1.73
2023-05-14T11:37:43.388Z,2.03
2023-05-14T11:40:16.718Z,1.33
2023-05-14T11:42:43.861Z,1.60
2023-05-14T11:45:26.500Z,2.00
2023-05-14T11:47:54.883Z,1.30
2023-05-14T11:50:24.652Z,1.67
2023-05-14T11:52:56.895Z,1.75
2023-05-14T11:55:23.940Z,1.23
2023-05-14T11:57:51.531Z,1.60
2023-05-14T12:00:22.247Z,1.70
2023-05-14T12:02:50.048Z,1.25
2023-05-14T12:05:17.293Z,1.92
2023-05-14T12:07:47.590Z,1.40
2023-05-14T12:10:15.107Z,1.13
2023-05-14T12:12:47.164Z,1.15
2023-05-14T12:15:16.816Z,1.27
2023-05-14T12:17:50.052Z,1.27
2023-05-14T12:20:17.403Z,1.20
2023-05-14T12:22:44.337Z,2.35
2023-05-14T12:25:15.793Z,1.20
2023-05-14T12:27:45.358Z,1.20
2023-05-14T12:30:21.211Z,1.05
2023-05-14T12:32:51.840Z,1.38
2023-05-14T12:35:19.279Z,4.07
2023-05-14T12:37:46.319Z,1.30
2023-05-14T12:40:13.447Z,0.95
2023-05-14T12:42:40.318Z,0.90
2023-05-14T12:45:08.749Z,1.00
2023-05-14T12:47:37.171Z,1.00
2023-05-14T12:50:05.068Z,0.63
2023-05-14T12:55:01.868Z,1.10
2023-05-14T12:57:30.417Z,1.00
2023-05-14T12:59:57.706Z,0.90
2023-05-14T13:02:24.458Z,1.10
2023-05-14T13:04:51.278Z,1.23
2023-05-14T13:07:18.515Z,0.80
2023-05-14T13:09:45.468Z,0.70
2023-05-14T13:12:12.203Z,0.90
2023-05-14T13:14:39.017Z,0.82
2023-05-14T13:17:07.149Z,0.80
2023-05-14T13:19:35.072Z,0.50
2023-05-14T13:22:01.958Z,0.90
2023-05-14T13:24:28.887Z,0.93
2023-05-14T13:26:55.951Z,0.60
2023-05-14T13:29:22.972Z,0.68
2023-05-14T13:31:50.259Z,1.00
2023-05-14T13:34:17.081Z,1.30
2023-05-14T13:36:44.045Z,2.30
2023-05-14T13:39:14.546Z,1.08
2023-05-14T13:41:41.641Z,1.70
2023-05-14T13:44:08.415Z,1.15
2023-05-14T13:46:35.396Z,1.10
2023-05-14T13:49:02.244Z,1.10
2023-05-14T13:51:29.033Z,1.00
2023-05-14T13:53:56.233Z,1.00
2023-05-14T13:56:23.358Z,0.70
2023-05-14T13:58:50.229Z,1.17
2023-05-14T14:01:17.150Z,1.35
2023-05-14T14:03:44.020Z,1.08
2023-05-14T14:06:12.200Z,0.93
2023-05-14T14:08:39.153Z,1.02
2023-05-14T14:11:06.048Z,0.75
2023-05-14T14:13:32.752Z,1.10
2023-05-14T14:15:59.591Z,1.00
2023-05-14T14:18:26.944Z,0.70
2023-05-14T14:20:53.857Z,0.70
2023-05-14T14:23:21.040Z,0.80
2023-05-14T14:25:47.876Z,0.80
2023-05-14T14:28:14.725Z,0.73
2023-05-14T14:30:41.732Z,0.77
2023-05-14T14:33:08.595Z,0.80
2023-05-14T14:35:36.388Z,1.08
2023-05-14T14:38:03.315Z,1.10
2023-05-14T14:40:33.455Z,0.82
2023-05-14T14:43:00.497Z,0.70
2023-05-14T14:45:27.305Z,1.00
2023-05-14T14:48:25.987Z,0.80
2023-05-14T14:50:53.571Z,0.77
2023-05-14T14:53:21.547Z,1.10
2023-05-14T14:55:49.094Z,1.13
2023-05-14T14:58:15.947Z,0.95
2023-05-14T15:00:43.447Z,0.90
2023-05-14T15:03:10.688Z,0.98
2023-05-14T15:05:37.871Z,1.08
2023-05-14T15:08:05.053Z,0.98
2023-05-14T15:10:32.896Z,1.08
2023-05-14T15:13:00.142Z,1.20
2023-05-14T15:15:26.956Z,0.90
2023-05-14T15:17:53.958Z,0.98
2023-05-14T15:20:20.919Z,0.75
2023-05-14T15:22:49.119Z,1.10
2023-05-14T15:25:15.976Z,1.25
2023-05-14T15:27:42.873Z,0.95
2023-05-14T15:30:12.941Z,1.10
2023-05-14T15:32:39.811Z,1.30
2023-05-14T15:35:07.084Z,1.30
2023-05-14T15:37:44.232Z,1.15
2023-05-14T15:40:12.150Z,1.23
2023-05-14T15:42:42.189Z,4.30
2023-05-14T15:45:10.497Z,1.10
2023-05-14T15:47:37.592Z,1.20
2023-05-14T15:50:05.453Z,0.90
2023-05-14T15:52:32.470Z,0.75
2023-05-14T15:54:59.727Z,1.38
2023-05-14T15:57:26.558Z,1.10
2023-05-14T15:59:53.382Z,1.10
2023-05-14T16:02:20.245Z,1.17
2023-05-14T16:04:48.786Z,1.25
2023-05-14T16:07:16.172Z,1.40
2023-05-14T16:09:43.036Z,1.40
2023-05-14T16:12:09.786Z,1.60
2023-05-14T16:14:36.703Z,1.67
2023-05-14T16:17:03.668Z,1.80
2023-05-14T16:19:30.653Z,1.88
2023-05-14T16:21:57.547Z,1.92
2023-05-14T16:24:24.391Z,1.95
2023-05-14T16:26:51.566Z,2.25
2023-05-14T16:29:18.449Z,1.65
2023-05-14T16:31:45.298Z,1.77
2023-05-14T16:34:12.164Z,1.42
2023-05-14T16:36:39.271Z,1.35
2023-05-14T16:39:07.690Z,1.38
2023-05-14T16:41:35.871Z,0.90
2023-05-14T16:44:03.043Z,0.80
2023-05-14T16:46:31.203Z,0.82
2023-05-14T16:48:58.217Z,1.45
2023-05-14T16:51:25.098Z,1.13
2023-05-14T16:53:52.138Z,0.90
2023-05-14T16:56:19.352Z,0.68
2023-05-14T16:58:46.245Z,0.80
2023-05-14T17:01:13.075Z,0.65
2023-05-14T17:03:39.928Z,0.55
2023-05-14T17:06:07.411Z,0.73
2023-05-14T17:08:35.631Z,1.10
2023-05-14T17:11:05.989Z,0.82
2023-05-14T17:13:33.283Z,1.35
2023-05-14T17:16:00.984Z,1.30
2023-05-14T17:18:28.350Z,1.80
2023-05-14T17:20:55.213Z,1.00
2023-05-14T17:23:22.009Z,1.10
2023-05-14T17:25:48.775Z,0.80
2023-05-14T17:28:15.758Z,1.10
2023-05-14T17:30:42.533Z,0.98
2023-05-14T17:33:09.462Z,0.70
2023-05-14T17:35:37.765Z,0.90
2023-05-14T17:38:04.900Z,1.27
2023-05-14T17:40:31.861Z,1.02
2023-05-14T17:42:58.701Z,1.20
2023-05-14T17:45:26.664Z,1.10
2023-05-14T17:47:53.760Z,1.35
2023-05-14T17:50:20.581Z,1.00
2023-05-14T17:52:47.700Z,1.20
2023-05-14T17:55:14.559Z,1.17
2023-05-14T17:57:42.173Z,1.20
2023-05-14T18:00:09.428Z,1.80
2023-05-14T18:02:39.554Z,1.10
2023-05-14T18:05:06.744Z,1.42
2023-05-14T18:07:33.533Z,1.05
2023-05-14T18:10:00.462Z,1.20
2023-05-14T18:12:27.569Z,1.02
2023-05-14T18:14:54.500Z,1.00
2023-05-14T18:17:21.513Z,1.10
2023-05-14T18:19:48.623Z,1.20
2023-05-14T18:22:15.747Z,1.30
2023-05-14T18:24:44.345Z,1.45
2023-05-14T18:27:11.475Z,1.48
2023-05-14T18:29:38.365Z,1.30
2023-05-14T18:32:05.908Z,1.42
2023-05-14T18:34:33.337Z,0.93
2023-05-14T18:37:00.206Z,0.90
2023-05-14T18:39:27.177Z,1.98
2023-05-14T18:41:55.285Z,2.05
2023-05-14T18:44:23.003Z,2.70
2023-05-14T18:46:50.115Z,1.40
2023-05-14T18:49:16.936Z,1.70
2023-05-14T18:51:43.888Z,1.25
2023-05-14T18:54:11.529Z,1.50
2023-05-14T18:56:40.088Z,1.20
2023-05-14T18:59:07.065Z,1.45
2023-05-14T19:01:34.000Z,1.65
2023-05-14T19:04:03.104Z,1.73
2023-05-14T19:06:31.838Z,2.47
2023-05-14T19:08:59.111Z,2.50
2023-05-14T19:11:26.388Z,1.90
2023-05-14T19:13:53.466Z,1.60
2023-05-14T19:16:20.673Z,1.52
2023-05-14T19:18:47.678Z,1.48
2023-05-14T19:21:17.479Z,2.05
2023-05-14T19:23:44.448Z,1.88
2023-05-14T19:26:11.424Z,2.58
2023-05-14T19:28:39.080Z,2.28
2023-05-14T19:31:06.333Z,2.40
2023-05-14T19:33:33.449Z,3.38
2023-05-14T19:36:01.505Z,3.72
2023-05-14T19:38:28.386Z,3.30
2023-05-14T19:40:57.078Z,2.22
2023-05-14T19:43:25.599Z,3.58
2023-05-14T19:45:52.618Z,4.05
2023-05-14T19:48:19.729Z,2.70
2023-05-14T19:50:47.738Z,3.85
2023-05-14T19:53:14.697Z,2.20
2023-05-14T19:55:41.896Z,1.25
2023-05-14T19:58:09.051Z,1.50
2023-05-14T20:00:37.180Z,1.40
2023-05-14T20:03:06.260Z,1.30
2023-05-14T20:05:37.143Z,1.70
2023-05-14T20:10:33.928Z,1.83
2023-05-14T20:13:00.998Z,1.80
2023-05-14T20:15:27.937Z,1.48
2023-05-14T20:17:55.014Z,1.35
2023-05-14T20:20:22.065Z,1.60
2023-05-14T20:22:49.002Z,1.65
2023-05-14T20:25:16.309Z,2.20
2023-05-14T20:27:43.183Z,2.00
2023-05-14T20:30:10.551Z,1.80
2023-05-14T20:32:37.542Z,1.60
2023-05-14T20:35:05.259Z,1.90
2023-05-14T20:37:33.195Z,1.55
2023-05-14T20:40:01.445Z,1.35
2023-05-14T20:42:28.666Z,1.25
2023-05-14T20:44:55.657Z,1.30
2023-05-14T20:47:26.678Z,1.33
2023-05-14T20:49:54.049Z,1.67
2023-05-14T20:52:21.043Z,1.17
2023-05-14T20:54:49.128Z,1.10
2023-05-14T20:57:16.290Z,1.25
2023-05-14T20:59:43.279Z,1.25
2023-05-14T21:02:10.326Z,1.25
2023-05-14T21:04:37.999Z,1.50
2023-05-14T21:07:06.243Z,1.10
2023-05-14T21:09:33.245Z,1.23
2023-05-14T21:12:00.210Z,1.30
2023-05-14T21:14:27.180Z,1.27
2023-05-14T21:16:53.974Z,1.10
2023-05-14T21:19:21.030Z,1.15
2023-05-14T21:21:47.922Z,1.30
2023-05-14T21:24:16.820Z,0.95
2023-05-14T21:26:43.832Z,1.13
2023-05-14T21:29:11.171Z,1.10
2023-05-14T21:31:37.965Z,0.90
2023-05-14T21:34:04.931Z,0.80
2023-05-14T21:36:31.928Z,0.95
2023-05-14T21:38:58.808Z,1.00
2023-05-14T21:41:25.801Z,0.95
2023-05-14T21:43:52.793Z,0.75
2023-05-14T21:46:19.778Z,0.77
2023-05-14T21:48:46.740Z,1.10
2023-05-14T21:51:13.566Z,1.33
2023-05-14T21:53:40.336Z,1.05
2023-05-14T21:56:08.283Z,1.08
2023-05-14T21:58:36.051Z,0.90
2023-05-14T22:01:02.963Z,0.90
2023-05-14T22:03:30.013Z,1.33
2023-05-14T22:05:57.392Z,1.17
2023-05-14T22:08:24.370Z,1.13
2023-05-14T22:10:51.121Z,1.40
2023-05-14T22:13:17.944Z,1.63
2023-05-14T22:15:44.784Z,1.58
2023-05-14T22:18:12.996Z,1.40
2023-05-14T22:20:44.282Z,1.10
2023-05-14T22:23:11.792Z,2.53
2023-05-14T22:25:38.584Z,1.80
2023-05-14T22:28:05.316Z,1.80
2023-05-14T22:30:32.016Z,1.60
2023-05-14T22:32:58.742Z,1.40
2023-05-14T22:35:25.866Z,1.48
2023-05-14T22:37:52.858Z,1.02
2023-05-14T22:40:19.673Z,0.88
2023-05-14T22:42:46.446Z,1.27
2023-05-14T22:45:13.296Z,0.73
2023-05-14T22:47:40.756Z,1.05
2023-05-14T22:50:11.537Z,1.00
2023-05-14T22:55:07.085Z,1.10
2023-05-14T22:57:34.651Z,0.93
2023-05-14T23:00:01.529Z,1.02
2023-05-14T23:02:28.458Z,1.30
2023-05-14T23:04:55.602Z,1.17
2023-05-14T23:07:22.657Z,1.10
2023-05-14T23:09:49.364Z,1.02
2023-05-14T23:12:16.251Z,1.17
2023-05-14T23:14:43.045Z,1.25
2023-05-14T23:17:09.838Z,1.40
2023-05-14T23:19:37.035Z,1.08
2023-05-14T23:22:03.878Z,1.23
2023-05-14T23:24:30.623Z,1.33
2023-05-14T23:26:57.403Z,1.05
2023-05-14T23:29:24.121Z,1.20
2023-05-14T23:31:51.175Z,0.90
2023-05-14T23:34:18.564Z,1.08
2023-05-14T23:36:45.570Z,1.10
2023-05-14T23:39:12.510Z,1.20
2023-05-14T23:41:39.288Z,0.88
2023-05-14T23:44:06.194Z,1.20
2023-05-14T23:46:33.310Z,1.00
2023-05-14T23:49:01.479Z,1.00
2023-05-14T23:51:28.345Z,1.30
2023-05-14T23:53:58.501Z,1.25
2023-05-14T23:56:26.223Z,1.00
2023-05-14T23:58:53.237Z,1.90
